Time;durP1;ratioP1;P1;durP2;ratioP2;P2;SDS_P1;SDS_P2;PMS_P1;PMS_P2;Temp;Humidity;BMP_temperature;BMP_pressure;BME280_temperature;BME280_humidity;BME280_pressure;Samples;Min_cycle;Max_cycle;Signal;HPM_P1;HPM_P2
2022/11/18 00:00:47;;;;;;;2.20;1.17;;;13.60;50.60;;;;;;5038430;28;20423;-74
2022/11/18 00:03:12;;;;;;;2.20;1.23;;;13.40;50.80;;;;;;5038021;28;20480;-76
2022/11/18 00:05:38;;;;;;;2.10;1.00;;;13.40;50.80;;;;;;5039357;28;20451;-74
2022/11/18 00:08:04;;;;;;;2.10;1.10;;;13.40;50.80;;;;;;5042537;28;20199;-74
2022/11/18 00:10:29;;;;;;;2.30;1.30;;;13.40;50.90;;;;;;5040219;28;20537;-74
2022/11/18 00:15:39;;;;;;;2.10;1.10;;;13.70;50.60;;;;;;5043689;28;20179;-75
2022/11/18 00:18:05;;;;;;;2.20;1.20;;;13.60;49.70;;;;;;5049221;28;20450;-74
2022/11/18 00:20:33;;;;;;;2.13;1.30;;;14.00;49.90;;;;;;5049545;28;20217;-74
2022/11/18 00:22:58;;;;;;;2.10;1.10;;;13.60;49.80;;;;;;5051043;28;20179;-74
2022/11/18 00:25:24;;;;;;;2.10;1.10;;;13.70;48.40;;;;;;5051308;28;20460;-74
2022/11/18 00:27:50;;;;;;;2.00;1.00;;;13.70;46.40;;;;;;5044109;28;20199;-74
2022/11/18 00:30:16;;;;;;;2.10;1.13;;;13.60;45.30;;;;;;5048772;28;20431;-74
2022/11/18 00:32:42;;;;;;;2.07;1.10;;;13.60;45.60;;;;;;5046829;28;20195;-74
2022/11/18 00:35:08;;;;;;;2.10;1.20;;;14.00;45.80;;;;;;5040629;28;20801;-74
2022/11/18 00:37:33;;;;;;;2.03;1.17;;;13.70;46.30;;;;;;5049200;28;20191;-74
2022/11/18 00:39:59;;;;;;;2.20;1.30;;;13.70;48.10;;;;;;5043505;28;20521;-74
2022/11/18 00:45:09;;;;;;;2.20;1.20;;;13.90;46.30;;;;;;5044341;28;20187;-74
2022/11/18 00:47:35;;;;;;;2.07;1.10;;;13.80;47.50;;;;;;5048945;28;20450;-74
2022/11/18 00:50:00;;;;;;;2.40;1.40;;;13.60;48.10;;;;;;5048028;28;20434;-74
2022/11/18 00:52:26;;;;;;;2.30;1.30;;;13.40;48.60;;;;;;5054458;28;20207;-74
2022/11/18 00:54:51;;;;;;;2.20;1.27;;;13.30;49.80;;;;;;5051795;28;20208;-74
2022/11/18 00:57:17;;;;;;;2.10;1.10;;;13.20;50.60;;;;;;5054273;28;20192;-74
2022/11/18 00:59:42;;;;;;;2.13;1.23;;;13.40;50.10;;;;;;5051613;28;20258;-74
2022/11/18 01:02:08;;;;;;;2.00;1.10;;;13.40;50.10;;;;;;5054152;28;20164;-74
2022/11/18 01:04:34;;;;;;;2.00;1.10;;;13.40;50.80;;;;;;5054630;28;20254;-74
2022/11/18 01:06:59;;;;;;;2.10;1.10;;;13.40;50.60;;;;;;5054536;28;20196;-75
2022/11/18 01:09:25;;;;;;;2.37;1.40;;;13.50;50.60;;;;;;5051114;28;20187;-74
2022/11/18 01:14:34;;;;;;;2.00;1.10;;;13.40;50.40;;;;;;5034535;28;20318;-74
2022/11/18 01:17:00;;;;;;;2.00;1.20;;;13.40;50.70;;;;;;5034634;28;20522;-74
2022/11/18 01:19:26;;;;;;;2.00;1.10;;;13.40;49.60;;;;;;5034087;28;20165;-74
2022/11/18 01:21:52;;;;;;;2.00;1.10;;;13.40;51.20;;;;;;5050274;28;20184;-74
2022/11/18 01:24:18;;;;;;;1.93;1.07;;;13.10;51.50;;;;;;5052977;28;20182;-74
2022/11/18 01:26:43;;;;;;;2.07;1.17;;;13.50;48.70;;;;;;5054235;28;20430;-74
2022/11/18 01:29:09;;;;;;;2.10;1.20;;;13.60;50.30;;;;;;5054108;28;20187;-74
2022/11/18 01:31:36;;;;;;;2.00;1.10;;;13.60;51.10;;;;;;5050165;28;20666;-74
2022/11/18 01:34:02;;;;;;;2.00;1.10;;;13.40;50.90;;;;;;5053735;28;20606;-75
2022/11/18 01:36:28;;;;;;;1.90;1.10;;;13.70;50.60;;;;;;5054386;28;20520;-74
2022/11/18 01:38:54;;;;;;;2.00;1.10;;;13.40;50.40;;;;;;5054226;28;20446;-75
2022/11/18 01:41:23;;;;;;;1.90;1.10;;;13.30;51.10;;;;;;5049621;28;20173;-74
2022/11/18 01:43:53;;;;;;;2.00;1.10;;;13.70;51.90;;;;;;5048333;28;20407;-74
2022/11/18 01:46:21;;;;;;;1.90;1.00;;;13.40;50.50;;;;;;5053931;28;20663;-74
2022/11/18 01:48:51;;;;;;;2.00;1.10;;;13.30;49.80;;;;;;5053893;28;20418;-74
2022/11/18 01:51:21;;;;;;;1.97;1.10;;;13.40;49.10;;;;;;5053962;28;20406;-74
2022/11/18 01:53:51;;;;;;;2.00;1.23;;;13.40;49.20;;;;;;5048369;28;20466;-74
2022/11/18 01:56:25;;;;;;;1.83;1.10;;;13.20;50.10;;;;;;5046922;28;20473;-74
2022/11/18 01:58:58;;;;;;;2.00;1.20;;;12.70;52.60;;;;;;5053795;28;20975;-74
2022/11/18 02:01:24;;;;;;;2.00;1.10;;;12.60;53.80;;;;;;5053119;28;20745;-74
2022/11/18 02:03:51;;;;;;;1.90;1.10;;;12.80;53.00;;;;;;5053734;28;20414;-74
2022/11/18 02:06:17;;;;;;;2.00;1.20;;;13.10;51.60;;;;;;5045742;28;20346;-74
2022/11/18 02:08:43;;;;;;;1.87;1.03;;;13.70;49.30;;;;;;5053907;28;20513;-74
2022/11/18 02:11:49;;;;;;;1.87;1.10;;;13.30;50.30;;;;;;5051901;28;20184;-74
2022/11/18 02:14:00;;;;;;;1.90;1.10;;;13.10;51.50;;;;;;5052892;28;20481;-74
2022/11/18 02:16:48;;;;;;;1.80;1.00;;;13.20;51.50;;;;;;5050394;28;20476;-73
2022/11/18 02:19:16;;;;;;;1.90;1.10;;;12.50;54.60;;;;;;5052137;28;20184;-74
2022/11/18 02:22:00;;;;;;;1.90;1.10;;;13.10;53.10;;;;;;5051961;28;20434;-74
2022/11/18 02:24:47;;;;;;;1.90;1.10;;;12.40;55.10;;;;;;5048641;28;20567;-74
2022/11/18 02:27:39;;;;;;;1.90;1.10;;;12.50;54.80;;;;;;5046229;28;20531;-73
2022/11/18 02:30:10;;;;;;;1.90;1.10;;;11.90;58.50;;;;;;5041263;28;20245;-74
2022/11/18 02:33:08;;;;;;;1.90;1.10;;;11.90;59.20;;;;;;5053311;28;20417;-74
2022/11/18 02:35:51;;;;;;;1.90;1.20;;;12.10;57.90;;;;;;5033253;28;20502;-74
2022/11/18 02:38:26;;;;;;;1.90;1.13;;;12.60;55.70;;;;;;5046230;28;20447;-75
2022/11/18 02:40:57;;;;;;;1.80;1.10;;;13.00;52.90;;;;;;5052996;28;20406;-73
2022/11/18 02:43:39;;;;;;;1.90;1.20;;;12.80;52.30;;;;;;5043365;28;20837;-74
2022/11/18 02:46:13;;;;;;;1.95;1.20;;;12.20;57.20;;;;;;5052718;28;20471;-74
2022/11/18 02:48:43;;;;;;;4.75;1.25;;;12.90;53.30;;;;;;5050345;28;20180;-74
2022/11/18 02:51:11;;;;;;;2.00;1.30;;;13.10;51.70;;;;;;5051465;28;20553;-74
2022/11/18 02:53:39;;;;;;;2.80;1.60;;;13.30;50.00;;;;;;5052666;28;20663;-74
2022/11/18 02:56:06;;;;;;;1.80;1.10;;;13.50;49.00;;;;;;5052577;28;20829;-74
2022/11/18 02:58:32;;;;;;;4.83;1.73;;;13.50;48.70;;;;;;5049430;28;20913;-74
2022/11/18 03:00:59;;;;;;;1.90;1.13;;;12.90;51.30;;;;;;5034882;28;20441;-75
2022/11/18 03:03:28;;;;;;;1.80;1.10;;;12.90;51.60;;;;;;5051927;28;20203;-74
2022/11/18 03:06:06;;;;;;;1.83;1.20;;;13.20;50.40;;;;;;5044318;28;20466;-74
2022/11/18 03:09:02;;;;;;;1.83;1.10;;;12.80;52.40;;;;;;5052302;28;20532;-75
2022/11/18 03:11:31;;;;;;;2.00;1.30;;;12.50;54.10;;;;;;5035829;28;20457;-74
2022/11/18 03:14:23;;;;;;;1.80;1.10;;;11.90;57.90;;;;;;5051153;28;20519;-74
2022/11/18 03:17:07;;;;;;;1.90;1.10;;;12.30;56.50;;;;;;5049765;28;20541;-74
2022/11/18 03:19:52;;;;;;;1.77;1.00;;;12.70;54.10;;;;;;5036307;28;20950;-73
2022/11/18 03:22:27;;;;;;;1.80;1.10;;;12.90;52.30;;;;;;5051719;28;20508;-75
2022/11/18 03:25:17;;;;;;;2.30;1.40;;;13.10;51.50;;;;;;5052475;28;20469;-74
2022/11/18 03:27:52;;;;;;;1.70;1.00;;;13.40;51.70;;;;;;5041417;28;20976;-74
2022/11/18 03:30:20;;;;;;;1.90;1.20;;;13.40;51.20;;;;;;5051579;28;20168;-74
2022/11/18 03:32:57;;;;;;;1.80;1.10;;;13.30;50.60;;;;;;5039837;28;20530;-74
2022/11/18 03:35:27;;;;;;;1.77;1.10;;;13.40;49.50;;;;;;5042847;28;20440;-74
2022/11/18 03:38:01;;;;;;;1.80;1.10;;;13.30;50.50;;;;;;5042653;28;20826;-74
2022/11/18 03:40:30;;;;;;;1.70;1.00;;;13.40;50.20;;;;;;5042792;28;20401;-74
2022/11/18 03:43:01;;;;;;;1.83;1.10;;;13.30;50.40;;;;;;5037820;28;20427;-75
2022/11/18 03:45:49;;;;;;;1.83;1.20;;;13.30;50.50;;;;;;5040710;28;20941;-75
2022/11/18 03:48:22;;;;;;;1.80;1.10;;;13.10;51.50;;;;;;5049910;28;20484;-75
2022/11/18 03:50:53;;;;;;;1.77;1.10;;;13.10;51.50;;;;;;5051783;28;20395;-75
2022/11/18 03:53:21;;;;;;;1.83;1.17;;;13.20;50.80;;;;;;5049224;28;21018;-75
2022/11/18 03:55:51;;;;;;;1.80;1.10;;;13.20;51.50;;;;;;5046825;28;20514;-74
2022/11/18 03:58:39;;;;;;;1.90;1.20;;;13.20;50.70;;;;;;5049941;28;20973;-75
2022/11/18 04:01:15;;;;;;;1.80;1.10;;;13.10;51.50;;;;;;5050415;28;20434;-74
2022/11/18 04:03:41;;;;;;;1.73;1.10;;;12.90;51.90;;;;;;5047918;28;20499;-77
2022/11/18 04:06:36;;;;;;;1.80;1.10;;;13.10;51.50;;;;;;5044841;28;20455;-73
2022/11/18 04:09:09;;;;;;;1.80;1.10;;;13.60;51.90;;;;;;5040448;28;20430;-73
2022/11/18 04:14:31;;;;;;;1.70;1.00;;;13.10;51.50;;;;;;5044562;28;20448;-74
2022/11/18 04:16:57;;;;;;;1.73;1.10;;;13.20;50.80;;;;;;5043087;28;20450;-74
2022/11/18 04:19:22;;;;;;;1.73;1.10;;;13.20;51.50;;;;;;5041461;28;20913;-74
2022/11/18 04:21:48;;;;;;;1.80;1.10;;;13.00;51.40;;;;;;5041516;28;20282;-74
2022/11/18 04:24:15;;;;;;;1.90;1.27;;;13.00;50.60;;;;;;5040058;28;20177;-74
2022/11/18 04:26:41;;;;;;;1.90;1.20;;;12.20;54.30;;;;;;5037802;28;20465;-74
2022/11/18 04:29:06;;;;;;;1.80;1.13;;;12.10;56.60;;;;;;5043802;28;20419;-73
2022/11/18 04:31:32;;;;;;;1.70;1.10;;;11.90;57.60;;;;;;5042520;28;20306;-75
2022/11/18 04:33:57;;;;;;;1.80;1.10;;;12.20;56.50;;;;;;5036293;28;20196;-74
2022/11/18 04:36:23;;;;;;;1.70;1.00;;;12.20;55.60;;;;;;5035335;28;20198;-73
2022/11/18 04:38:49;;;;;;;3.07;1.57;;;11.90;58.20;;;;;;5048282;28;20284;-74
2022/11/18 04:41:14;;;;;;;1.70;1.07;;;11.80;59.10;;;;;;5043927;28;20287;-74
2022/11/18 04:43:40;;;;;;;1.70;1.10;;;11.30;61.80;;;;;;5042690;28;20176;-75
2022/11/18 04:46:06;;;;;;;2.00;1.40;;;11.00;62.40;;;;;;5041621;28;20176;-75
2022/11/18 04:48:32;;;;;;;1.80;1.10;;;11.10;63.40;;;;;;5040333;28;20489;-73
2022/11/18 04:51:02;;;;;;;1.90;1.30;;;11.00;63.70;;;;;;5042554;28;20194;-73
2022/11/18 04:53:28;;;;;;;1.80;1.10;;;11.00;65.60;;;;;;5040732;28;20219;-74
2022/11/18 04:55:54;;;;;;;2.30;1.20;;;10.70;68.10;;;;;;5043103;28;20406;-73
2022/11/18 04:58:19;;;;;;;1.80;1.10;;;10.60;69.50;;;;;;5040056;28;20179;-73
2022/11/18 05:00:45;;;;;;;1.77;1.13;;;11.30;65.20;;;;;;5039844;28;20230;-74
2022/11/18 05:03:10;;;;;;;1.80;1.17;;;12.10;61.10;;;;;;5042527;28;20183;-75
2022/11/18 05:05:36;;;;;;;1.80;1.10;;;12.00;57.00;;;;;;5040654;28;20176;-74
2022/11/18 05:08:02;;;;;;;1.70;1.00;;;12.10;54.20;;;;;;5040727;28;20560;-75
2022/11/18 05:10:27;;;;;;;1.80;1.10;;;12.10;51.90;;;;;;5039114;28;20168;-74
2022/11/18 05:12:53;;;;;;;1.80;1.10;;;11.80;53.80;;;;;;5040981;28;20434;-75
2022/11/18 05:15:22;;;;;;;1.90;1.20;;;12.20;51.40;;;;;;5040115;28;20228;-75
2022/11/18 05:17:48;;;;;;;1.90;1.20;;;12.60;49.10;;;;;;5040349;28;20184;-75
2022/11/18 05:20:14;;;;;;;1.77;1.10;;;12.70;48.30;;;;;;5040481;28;20550;-75
2022/11/18 05:22:40;;;;;;;1.70;1.10;;;12.50;48.80;;;;;;5040578;28;20548;-75
2022/11/18 05:25:06;;;;;;;1.73;1.10;;;12.10;50.50;;;;;;5043587;28;20422;-75
2022/11/18 05:27:32;;;;;;;1.80;1.10;;;12.30;48.80;;;;;;5042108;28;20215;-75
2022/11/18 05:29:57;;;;;;;1.80;1.10;;;12.60;48.80;;;;;;5039425;28;21701;-76
2022/11/18 05:32:23;;;;;;;1.80;1.10;;;12.70;49.50;;;;;;5040647;28;20179;-75
2022/11/18 05:34:49;;;;;;;1.80;1.17;;;12.90;48.60;;;;;;5042327;28;20254;-75
2022/11/18 05:37:15;;;;;;;1.70;1.10;;;13.00;48.60;;;;;;5040841;28;20867;-75
2022/11/18 05:39:41;;;;;;;1.70;1.10;;;12.90;49.50;;;;;;5045301;28;20172;-75
2022/11/18 05:44:50;;;;;;;1.77;1.10;;;12.80;49.70;;;;;;5047110;28;20982;-75
2022/11/18 05:47:17;;;;;;;1.80;1.20;;;12.70;50.40;;;;;;5044616;28;20522;-75
2022/11/18 05:49:42;;;;;;;1.70;1.10;;;12.90;51.30;;;;;;5040748;28;20689;-75
2022/11/18 05:52:08;;;;;;;1.80;1.20;;;12.80;50.40;;;;;;5045873;28;20188;-75
2022/11/18 05:54:37;;;;;;;1.70;1.10;;;13.10;50.10;;;;;;5043088;28;20686;-76
2022/11/18 05:57:02;;;;;;;1.80;1.20;;;13.00;49.50;;;;;;5047209;28;20841;-77
2022/11/18 05:59:28;;;;;;;1.70;1.10;;;13.00;49.10;;;;;;5045188;28;20431;-76
2022/11/18 06:02:06;;;;;;;1.80;1.20;;;13.00;48.80;;;;;;5043036;28;20171;-76
2022/11/18 06:04:35;;;;;;;1.70;1.10;;;13.00;49.40;;;;;;5044714;28;20434;-76
2022/11/18 06:07:23;;;;;;;1.70;1.10;;;13.00;49.90;;;;;;5044662;28;20246;-75
2022/11/18 06:09:53;;;;;;;1.70;1.00;;;13.10;48.80;;;;;;5043208;28;20168;-75
2022/11/18 06:12:23;;;;;;;1.80;1.20;;;12.90;49.60;;;;;;5041801;28;20432;-75
2022/11/18 06:14:57;;;;;;;1.70;1.10;;;13.20;50.00;;;;;;5043913;28;20923;-75
2022/11/18 06:17:31;;;;;;;1.80;1.20;;;12.90;49.70;;;;;;5044881;28;20450;-75
2022/11/18 06:19:58;;;;;;;1.80;1.20;;;13.10;49.20;;;;;;5044922;28;20475;-75
2022/11/18 06:22:24;;;;;;;1.70;1.10;;;12.90;50.20;;;;;;5042024;28;20180;-75
2022/11/18 06:24:50;;;;;;;1.60;1.00;;;13.50;48.70;;;;;;5044034;28;20179;-75
2022/11/18 06:27:16;;;;;;;1.80;1.10;;;12.80;48.10;;;;;;5045253;28;20204;-75
2022/11/18 06:29:41;;;;;;;1.70;1.10;;;12.80;48.40;;;;;;5043889;28;20549;-75
2022/11/18 06:32:07;;;;;;;1.80;1.20;;;12.50;48.50;;;;;;5042412;28;20511;-75
2022/11/18 06:34:32;;;;;;;1.77;1.17;;;12.20;48.10;;;;;;5041599;28;20210;-74
2022/11/18 06:36:58;;;;;;;1.70;1.10;;;11.80;50.20;;;;;;5041174;28;20215;-75
2022/11/18 06:39:24;;;;;;;1.70;1.20;;;11.20;52.10;;;;;;5043615;28;20180;-75
2022/11/18 06:41:52;;;;;;;1.80;1.20;;;11.10;53.00;;;;;;5041431;28;20555;-75
2022/11/18 06:44:18;;;;;;;1.70;1.10;;;11.20;51.80;;;;;;5046125;28;20182;-76
2022/11/18 06:47:00;;;;;;;1.70;1.10;;;11.70;52.30;;;;;;5042284;28;20212;-75
2022/11/18 06:49:27;;;;;;;1.80;1.10;;;12.00;50.40;;;;;;5045495;28;20622;-75
2022/11/18 06:51:53;;;;;;;1.77;1.10;;;12.20;49.10;;;;;;5042582;28;20242;-75
2022/11/18 06:54:19;;;;;;;1.70;1.10;;;12.40;49.80;;;;;;5041832;28;20848;-75
2022/11/18 06:56:45;;;;;;;1.70;1.10;;;12.40;48.00;;;;;;5042646;28;20196;-75
2022/11/18 06:59:10;;;;;;;1.70;1.10;;;12.30;50.40;;;;;;5044692;28;20407;-75
2022/11/18 07:01:38;;;;;;;1.70;1.10;;;12.40;49.90;;;;;;5043428;28;20176;-75
2022/11/18 07:04:04;;;;;;;1.70;1.10;;;12.50;50.20;;;;;;5041176;28;20169;-75
2022/11/18 07:06:32;;;;;;;1.70;1.10;;;12.80;50.20;;;;;;5042075;28;20199;-75
2022/11/18 07:09:03;;;;;;;1.70;1.10;;;12.70;48.20;;;;;;5040443;28;20442;-76
2022/11/18 07:11:28;;;;;;;1.70;1.10;;;12.50;49.60;;;;;;5039372;28;20189;-85
2022/11/18 07:13:54;;;;;;;1.70;1.10;;;12.60;50.30;;;;;;5034827;28;20541;-85
2022/11/18 07:16:25;;;;;;;1.70;1.10;;;12.70;51.00;;;;;;5032503;28;20582;-86
2022/11/18 07:18:52;;;;;;;1.70;1.10;;;12.80;50.10;;;;;;5032853;28;20427;-86
2022/11/18 07:21:21;;;;;;;1.80;1.10;;;12.70;51.10;;;;;;5031484;28;20423;-86
2022/11/18 07:23:46;;;;;;;1.70;1.10;;;12.80;49.30;;;;;;5039282;28;20180;-84
2022/11/18 07:26:13;;;;;;;1.70;1.10;;;12.90;48.70;;;;;;5042609;28;20462;-80
2022/11/18 07:28:38;;;;;;;1.77;1.10;;;12.50;49.20;;;;;;5041959;28;20185;-77
2022/11/18 07:31:08;;;;;;;1.70;1.10;;;12.40;50.80;;;;;;5039801;28;20442;-77
2022/11/18 07:33:35;;;;;;;1.70;1.13;;;12.20;49.40;;;;;;5044083;28;20206;-77
2022/11/18 07:36:06;;;;;;;1.70;1.00;;;12.30;48.80;;;;;;5043377;28;20415;-77
2022/11/18 07:38:32;;;;;;;1.73;1.10;;;12.00;50.00;;;;;;5042446;28;20430;-77
2022/11/18 07:41:08;;;;;;;1.70;1.20;;;11.70;51.40;;;;;;5037153;28;20442;-78
2022/11/18 07:43:34;;;;;;;1.70;1.10;;;12.10;49.60;;;;;;5041596;28;20183;-78
2022/11/18 07:46:21;;;;;;;1.70;1.10;;;12.40;47.90;;;;;;5040786;28;20551;-77
2022/11/18 07:48:49;;;;;;;1.80;1.20;;;12.20;50.60;;;;;;5036863;28;20268;-76
2022/11/18 07:51:16;;;;;;;1.80;1.10;;;12.90;48.60;;;;;;5043104;28;20424;-77
2022/11/18 07:53:42;;;;;;;1.70;1.10;;;13.00;46.00;;;;;;5042834;28;20847;-77
2022/11/18 07:56:08;;;;;;;1.73;1.17;;;13.10;47.10;;;;;;5040172;28;20434;-77
2022/11/18 07:58:35;;;;;;;1.70;1.00;;;13.00;46.50;;;;;;5045569;28;20437;-77
2022/11/18 08:01:10;;;;;;;1.80;1.20;;;13.00;47.40;;;;;;5042511;28;20403;-77
2022/11/18 08:03:36;;;;;;;1.80;1.20;;;12.90;46.90;;;;;;5041715;28;20425;-77
2022/11/18 08:06:03;;;;;;;1.80;1.20;;;12.70;49.10;;;;;;5038376;28;20488;-76
2022/11/18 08:08:29;;;;;;;1.80;1.10;;;12.00;51.00;;;;;;5041847;28;20187;-76
2022/11/18 08:10:56;;;;;;;1.80;1.10;;;12.40;48.70;;;;;;5041822;28;20187;-76
2022/11/18 08:13:22;;;;;;;1.80;1.20;;;13.20;48.80;;;;;;5036946;28;20261;-76
2022/11/18 08:15:48;;;;;;;2.30;1.70;;;12.70;48.90;;;;;;5040026;28;20500;-76
2022/11/18 08:18:13;;;;;;;1.80;1.10;;;12.40;50.50;;;;;;5041492;28;20970;-76
2022/11/18 08:20:39;;;;;;;2.00;1.23;;;13.00;50.30;;;;;;5043421;28;20199;-76
2022/11/18 08:23:04;;;;;;;1.80;1.10;;;12.60;50.50;;;;;;5043090;28;20208;-76
2022/11/18 08:25:30;;;;;;;2.00;1.30;;;12.70;51.50;;;;;;5041069;28;20187;-76
2022/11/18 08:27:55;;;;;;;1.80;1.00;;;12.30;50.70;;;;;;5044972;28;20204;-76
2022/11/18 08:30:21;;;;;;;1.80;1.10;;;11.90;51.40;;;;;;5035694;28;20305;-79
2022/11/18 08:32:47;;;;;;;1.80;1.10;;;12.20;53.60;;;;;;5047799;28;20576;-76
2022/11/18 08:35:12;;;;;;;2.20;1.30;;;11.90;52.00;;;;;;5046340;28;20207;-76
2022/11/18 08:37:38;;;;;;;1.90;1.30;;;11.50;55.10;;;;;;5047027;28;20199;-76
2022/11/18 08:40:04;;;;;;;2.13;1.33;;;11.50;57.50;;;;;;5048923;28;20190;-76
2022/11/18 08:42:30;;;;;;;2.00;1.40;;;11.40;56.60;;;;;;5044354;28;20176;-76
2022/11/18 08:44:56;;;;;;;1.90;1.20;;;11.60;56.80;;;;;;5037424;28;20434;-80
2022/11/18 08:47:21;;;;;;;1.80;1.10;;;11.60;57.20;;;;;;5048020;28;20192;-75
2022/11/18 08:49:48;;;;;;;3.10;1.20;;;12.00;55.00;;;;;;5040983;28;20184;-75
2022/11/18 08:52:13;;;;;;;1.73;1.10;;;12.00;54.60;;;;;;5038454;28;20187;-75
2022/11/18 08:54:40;;;;;;;1.70;1.00;;;11.70;55.50;;;;;;5039137;28;20453;-75
2022/11/18 08:57:06;;;;;;;1.87;1.13;;;11.50;56.90;;;;;;5040542;28;20205;-74
2022/11/18 08:59:31;;;;;;;1.80;1.10;;;11.40;58.40;;;;;;5047854;28;20433;-74
2022/11/18 09:01:57;;;;;;;1.80;1.10;;;12.20;55.40;;;;;;5050249;28;20576;-75
2022/11/18 09:04:23;;;;;;;1.80;1.10;;;12.80;52.90;;;;;;5044530;28;20195;-75
2022/11/18 09:06:48;;;;;;;1.80;1.10;;;13.20;52.30;;;;;;5034207;28;20231;-75
2022/11/18 09:09:14;;;;;;;1.90;1.10;;;12.80;50.10;;;;;;5045134;28;20684;-75
2022/11/18 09:11:41;;;;;;;1.90;1.10;;;13.30;50.90;;;;;;5043507;28;20184;-76
2022/11/18 09:14:06;;;;;;;1.87;1.10;;;12.90;50.30;;;;;;5054171;28;20461;-75
2022/11/18 09:16:33;;;;;;;2.00;1.23;;;13.10;50.30;;;;;;5052436;28;20456;-76
2022/11/18 09:18:59;;;;;;;1.97;1.10;;;13.20;48.90;;;;;;5039606;28;20180;-75
2022/11/18 09:21:26;;;;;;;2.03;1.20;;;12.50;50.60;;;;;;5041007;28;20845;-76
2022/11/18 09:23:52;;;;;;;1.93;1.07;;;12.40;54.90;;;;;;5047120;28;20431;-75
2022/11/18 09:26:19;;;;;;;1.97;1.10;;;12.20;55.70;;;;;;5048652;28;20449;-74
2022/11/18 09:28:46;;;;;;;2.00;1.10;;;12.50;53.70;;;;;;5054408;28;20446;-75
2022/11/18 09:31:14;;;;;;;2.30;1.33;;;12.10;55.00;;;;;;5052992;28;20401;-75
2022/11/18 09:33:40;;;;;;;2.30;1.40;;;12.90;56.30;;;;;;5045359;28;20483;-75
2022/11/18 09:36:15;;;;;;;2.00;1.13;;;12.80;53.90;;;;;;5049160;28;20427;-75
2022/11/18 09:38:41;;;;;;;2.00;1.00;;;13.00;52.60;;;;;;5054305;28;20402;-75
2022/11/18 09:41:10;;;;;;;2.10;1.20;;;12.90;52.30;;;;;;5054222;28;20406;-75
2022/11/18 09:44:09;;;;;;;2.10;1.13;;;12.60;53.70;;;;;;5049854;28;20964;-75
2022/11/18 09:46:49;;;;;;;2.10;1.10;;;12.20;53.90;;;;;;5042944;28;20462;-75
2022/11/18 09:49:40;;;;;;;2.07;1.10;;;12.10;55.60;;;;;;5042260;28;20465;-75
2022/11/18 09:52:20;;;;;;;3.90;1.50;;;12.40;54.40;;;;;;5045345;28;20529;-75
2022/11/18 09:54:46;;;;;;;2.10;1.20;;;12.60;53.70;;;;;;5042239;28;20458;-75
2022/11/18 09:57:18;;;;;;;2.07;1.20;;;12.40;53.70;;;;;;5050687;28;20446;-75
2022/11/18 09:59:44;;;;;;;1.93;1.00;;;12.30;55.50;;;;;;5051801;28;20845;-75
2022/11/18 10:02:18;;;;;;;2.67;1.33;;;12.70;54.70;;;;;;5044877;28;20484;-75
2022/11/18 10:04:44;;;;;;;2.00;1.10;;;12.10;54.10;;;;;;5046935;28;20665;-75
2022/11/18 10:08:03;;;;;;;2.10;1.10;;;12.40;54.80;;;;;;5043675;28;20450;-75
2022/11/18 10:10:47;;;;;;;2.10;1.17;;;12.30;53.60;;;;;;5023446;28;20419;-75
2022/11/18 10:13:38;;;;;;;2.00;1.20;;;12.10;53.90;;;;;;5027074;28;21008;-75
2022/11/18 10:16:22;;;;;;;2.00;1.10;;;12.00;54.00;;;;;;5031128;28;20412;-74
2022/11/18 10:18:55;;;;;;;2.20;1.30;;;12.00;55.30;;;;;;5031334;28;20399;-75
2022/11/18 10:21:21;;;;;;;1.90;1.10;;;12.10;53.90;;;;;;5014072;28;20501;-75
2022/11/18 10:24:12;;;;;;;1.93;1.10;;;11.90;57.40;;;;;;5025025;28;20938;-75
2022/11/18 10:26:40;;;;;;;1.90;1.10;;;12.30;53.60;;;;;;5024165;28;20212;-74
2022/11/18 10:29:09;;;;;;;1.90;1.00;;;12.30;57.00;;;;;;5030898;28;20411;-75
2022/11/18 10:32:14;;;;;;;2.00;1.10;;;11.60;59.30;;;;;;5030726;28;20411;-75
2022/11/18 10:34:55;;;;;;;1.93;1.00;;;11.70;58.80;;;;;;4957252;28;20866;-75
2022/11/18 10:37:27;;;;;;;3.23;1.17;;;12.10;57.30;;;;;;4953363;28;20458;-74
2022/11/18 10:39:59;;;;;;;2.10;1.20;;;12.50;54.70;;;;;;4952642;29;20459;-75
2022/11/18 10:42:28;;;;;;;2.20;1.30;;;12.70;51.50;;;;;;4952221;29;20430;-74
2022/11/18 10:44:53;;;;;;;2.00;1.10;;;12.10;55.20;;;;;;4956687;28;20541;-74
2022/11/18 10:47:30;;;;;;;2.10;1.10;;;12.30;54.10;;;;;;4982069;28;20556;-75
2022/11/18 10:50:00;;;;;;;2.20;1.20;;;12.40;56.80;;;;;;4981993;28;20434;-75
2022/11/18 10:52:28;;;;;;;2.10;1.10;;;12.90;51.90;;;;;;4961157;28;20417;-75
2022/11/18 10:55:23;;;;;;;2.10;1.10;;;12.90;52.40;;;;;;4960262;28;20478;-75
2022/11/18 10:57:52;;;;;;;2.13;1.03;;;13.50;50.40;;;;;;4955814;28;20550;-75
2022/11/18 11:00:38;;;;;;;2.30;1.20;;;13.80;48.70;;;;;;4967652;28;20442;-75
2022/11/18 11:03:40;;;;;;;2.30;1.20;;;14.30;48.00;;;;;;4962430;28;20476;-75
2022/11/18 11:06:26;;;;;;;2.63;1.37;;;13.80;47.90;;;;;;4953440;28;20934;-74
2022/11/18 11:08:52;;;;;;;2.37;1.20;;;12.50;54.50;;;;;;4957989;28;20442;-75
2022/11/18 11:11:28;;;;;;;2.33;1.07;;;13.30;53.40;;;;;;4962594;28;20505;-75
2022/11/18 11:14:02;;;;;;;2.40;1.20;;;13.70;50.70;;;;;;4961817;28;21016;-75
2022/11/18 11:16:29;;;;;;;2.40;1.10;;;13.70;48.40;;;;;;4962115;28;20921;-75
2022/11/18 11:19:00;;;;;;;2.50;1.20;;;13.80;47.80;;;;;;4959396;28;20435;-75
2022/11/18 11:21:29;;;;;;;2.57;1.40;;;14.20;45.40;;;;;;4964854;28;20497;-75
2022/11/18 11:23:55;;;;;;;2.40;1.17;;;13.40;46.70;;;;;;4961386;28;20441;-75
2022/11/18 11:26:43;;;;;;;2.20;1.10;;;13.60;48.10;;;;;;4961503;28;20481;-75
2022/11/18 11:29:46;;;;;;;2.30;1.10;;;13.50;47.50;;;;;;4958635;28;20833;-75
2022/11/18 11:32:30;;;;;;;2.30;1.10;;;12.90;50.00;;;;;;4964667;28;20410;-75
2022/11/18 11:34:58;;;;;;;2.30;1.10;;;13.10;50.60;;;;;;4960725;28;20546;-75
2022/11/18 11:37:39;;;;;;;2.50;1.10;;;13.40;49.60;;;;;;4961199;28;20462;-75
2022/11/18 11:40:07;;;;;;;2.40;1.10;;;13.80;46.70;;;;;;4961716;28;20443;-74
2022/11/18 11:43:01;;;;;;;2.30;1.10;;;13.70;48.90;;;;;;5002380;28;20475;-75
2022/11/18 11:45:36;;;;;;;2.40;1.10;;;13.20;46.90;;;;;;5041202;28;20484;-75
2022/11/18 11:48:28;;;;;;;2.57;1.10;;;12.80;51.10;;;;;;5042073;28;20435;-75
2022/11/18 11:51:15;;;;;;;2.43;1.10;;;12.80;50.30;;;;;;5044124;28;20466;-75
2022/11/18 11:53:46;;;;;;;2.60;1.20;;;12.50;50.80;;;;;;5031632;28;20443;-75
2022/11/18 11:56:24;;;;;;;2.50;1.10;;;12.60;53.20;;;;;;5032079;28;20783;-75
2022/11/18 11:59:17;;;;;;;2.40;1.10;;;12.60;49.10;;;;;;5031911;28;20388;-75
2022/11/18 12:02:07;;;;;;;2.40;1.10;;;12.10;50.60;;;;;;5046811;28;20422;-74
2022/11/18 12:04:50;;;;;;;2.43;1.10;;;11.20;59.90;;;;;;5031267;28;20494;-74
2022/11/18 12:07:22;;;;;;;2.40;1.10;;;11.90;58.10;;;;;;5031550;28;20526;-75
2022/11/18 12:10:14;;;;;;;2.50;1.20;;;12.20;55.30;;;;;;5031682;28;20486;-75
2022/11/18 12:12:46;;;;;;;2.50;1.10;;;12.10;55.50;;;;;;5042796;28;20446;-75
2022/11/18 12:15:42;;;;;;;2.40;1.10;;;11.80;56.20;;;;;;5051067;28;20512;-74
2022/11/18 12:18:19;;;;;;;2.60;1.10;;;11.20;56.40;;;;;;5050008;28;20438;-74
2022/11/18 12:20:50;;;;;;;2.57;1.03;;;11.40;55.40;;;;;;5051374;28;20382;-75
2022/11/18 12:23:22;;;;;;;2.70;1.30;;;12.00;52.60;;;;;;5047717;28;20434;-75
2022/11/18 12:25:52;;;;;;;2.53;1.10;;;12.50;49.50;;;;;;5042663;28;20488;-74
2022/11/18 12:28:26;;;;;;;2.60;1.20;;;12.20;47.30;;;;;;5041450;28;20442;-75
2022/11/18 12:31:14;;;;;;;2.50;1.13;;;12.00;50.30;;;;;;5037705;28;20942;-75
2022/11/18 12:33:42;;;;;;;2.50;1.10;;;11.00;55.90;;;;;;5042910;28;20969;-75
2022/11/18 12:36:08;;;;;;;2.40;1.10;;;11.00;58.80;;;;;;5038566;28;20435;-75
2022/11/18 12:38:34;;;;;;;2.60;1.37;;;11.10;58.10;;;;;;5045943;28;20514;-75
2022/11/18 12:43:45;;;;;;;2.47;1.20;;;11.20;57.50;;;;;;5042149;28;20191;-75
2022/11/18 12:43:49;;;;;;;2.47;1.20;;;11.50;56.90;;;;;;5038995;28;20258;-74
2022/11/18 12:46:36;;;;;;;2.50;1.20;;;11.30;58.60;;;;;;5046785;28;20462;-75
2022/11/18 12:49:20;;;;;;;2.27;1.10;;;11.80;56.70;;;;;;5047871;28;20192;-75
2022/11/18 12:51:46;;;;;;;2.30;1.10;;;12.10;53.90;;;;;;5045394;28;20430;-75
2022/11/18 12:54:27;;;;;;;2.40;1.20;;;12.50;52.10;;;;;;5044954;28;20449;-75
2022/11/18 12:56:53;;;;;;;2.60;1.30;;;12.90;50.90;;;;;;5043757;28;20500;-75
2022/11/18 12:59:33;;;;;;;2.40;1.10;;;13.10;49.00;;;;;;5044928;28;20924;-77
2022/11/18 13:02:20;;;;;;;2.40;1.10;;;13.70;48.00;;;;;;5040763;28;21050;-77
2022/11/18 13:05:03;;;;;;;2.50;1.20;;;14.40;47.10;;;;;;5045929;28;20407;-76
2022/11/18 13:10:26;;;;;;;2.53;1.10;;;12.90;46.90;;;;;;5042493;28;20425;-75
2022/11/18 13:12:53;;;;;;;2.60;1.00;;;12.20;50.20;;;;;;5046365;28;20545;-75
2022/11/18 13:18:19;;;;;;;2.60;1.10;;;13.30;48.90;;;;;;5051604;28;20487;-75
2022/11/18 13:23:50;;;;;;;2.80;1.10;;;12.80;45.50;;;;;;5045221;28;20418;-75
2022/11/18 13:23:51;;;;;;;2.70;1.20;;;12.70;46.30;;;;;;5037269;28;20754;-75
2022/11/18 13:26:21;;;;;;;2.77;1.10;;;12.30;45.40;;;;;;5041462;28;20599;-75
2022/11/18 13:29:16;;;;;;;2.70;1.10;;;12.70;46.10;;;;;;5041503;28;20435;-75